Accueil
METAR-TAF:

METAR-TAF

Aéroports :

Caracas, Venezuela

Aéroport international Maiquetía - Simón Bolívar

latitude: 10-36N, longitude: 066-59W, altitude: 43 m

Observation

Le bulletin a été fait il y a 11 minutes, à 00:00 UTC
Température 27°C
Humidité 84%
Pression 1009 hPa
Visibilité 10 km ou plus
Quelques nuages à une hauteur de 1600 ft

METAR: SVMI 230000Z /////KT 9999 FEW016 27/24 Q1009

Heure: 20:11 (00:11 UTC)

Prévision

Le bulletin a été fait il y a 2 heures et 11 minutes, à 22:00 UTC
Prévision valable du 23 à 00 UTC au 24 à 00 UTC
Vent 6 kt de est
Visibilité 10 km ou plus
Nuages épars à une hauteur de 1300 ft
Evoluant progressivement
du 23 à 00 UTC au 23 à 04 UTC
Vent 6 kt de est
Nuages fragmentés à une hauteur de 1300 ft

TAF: SVMI 222200Z 2300/2400 09006KT 9999 SCT013 TX33/18Z TN25/09Z BECMG 2300/2304 10006KT BKN013

Observations et prévisions météorologiques de plus de 4000 aéroports (messages METAR et TAF).

Les stations disponibles sont représentées par des disques jaunes et rouges sur la carte.

Passer la souris dessus pour voir le nom de la station.

Cliquer dessus pour voir les observations et prévisions météorologiques.

Pour changer de carte: cliquez sur les boutons verts avec une croix noire pour zoomer, sur le bouton vert avec un tiret pour effectuer un zoom arrière, ou sur les flèches vertes pour les cartes adjacentes.


METAR-TAF: